createdAt,value
2023-05-05T00:01:16.545Z,64.75
2023-05-05T00:03:43.074Z,64.81
2023-05-05T00:06:09.645Z,64.74
2023-05-05T00:08:36.351Z,64.76
2023-05-05T00:11:03.053Z,64.92
2023-05-05T00:13:29.656Z,65.18
2023-05-05T00:15:56.131Z,64.95
2023-05-05T00:18:22.718Z,64.95
2023-05-05T00:20:49.574Z,64.58
2023-05-05T00:23:16.862Z,65.15
2023-05-05T00:25:43.316Z,65.42
2023-05-05T00:28:09.912Z,65.37
2023-05-05T00:30:37.451Z,65.60
2023-05-05T00:33:04.115Z,65.62
2023-05-05T00:35:30.832Z,65.84
2023-05-05T00:37:57.372Z,65.61
2023-05-05T00:40:25.202Z,65.38
2023-05-05T00:42:51.696Z,65.74
2023-05-05T00:45:19.299Z,66.42
2023-05-05T00:47:53.525Z,66.02
2023-05-05T00:50:26.146Z,66.00
2023-05-05T00:52:55.390Z,66.04
2023-05-05T00:55:22.163Z,66.28
2023-05-05T00:57:49.441Z,66.46
2023-05-05T01:00:16.906Z,66.54
2023-05-05T01:02:44.625Z,66.37
2023-05-05T01:05:13.243Z,66.29
2023-05-05T01:07:50.681Z,65.62
2023-05-05T01:10:38.891Z,65.39
2023-05-05T01:13:05.322Z,65.45
2023-05-05T01:15:37.702Z,65.18
2023-05-05T01:18:04.123Z,65.52
2023-05-05T01:20:40.305Z,65.58
2023-05-05T01:27:11.817Z,65.29
2023-05-05T01:29:49.893Z,65.10
2023-05-05T01:32:21.965Z,65.49
2023-05-05T01:34:53.881Z,66.10
2023-05-05T01:37:30.091Z,66.70
2023-05-05T01:40:01.964Z,67.07
2023-05-05T01:42:30.598Z,66.93
2023-05-05T01:44:58.794Z,67.13
2023-05-05T01:47:27.776Z,66.43
2023-05-05T01:49:54.556Z,66.73
2023-05-05T01:52:23.330Z,67.07
2023-05-05T01:54:51.331Z,67.15
2023-05-05T01:57:21.054Z,67.05
2023-05-05T01:59:49.477Z,67.66
2023-05-05T02:02:16.532Z,67.55
2023-05-05T02:04:44.919Z,67.81
2023-05-05T02:07:13.202Z,67.81
2023-05-05T02:09:42.273Z,68.21
2023-05-05T02:12:10.195Z,68.34
2023-05-05T02:14:38.685Z,67.92
2023-05-05T02:17:05.124Z,68.02
2023-05-05T02:19:39.766Z,67.37
2023-05-05T02:22:06.487Z,67.86
2023-05-05T02:24:33.367Z,67.89
2023-05-05T02:27:02.550Z,68.04
2023-05-05T02:29:52.008Z,67.53
2023-05-05T02:32:23.754Z,67.88
2023-05-05T02:34:51.771Z,67.64
2023-05-05T02:37:23.212Z,67.20
2023-05-05T02:40:02.262Z,67.33
2023-05-05T02:42:32.143Z,67.55
2023-05-05T02:45:01.861Z,67.40
2023-05-05T02:47:36.206Z,68.38
2023-05-05T02:50:05.161Z,67.71
2023-05-05T02:52:32.088Z,67.92
2023-05-05T02:55:03.077Z,68.46
2023-05-05T02:57:44.480Z,68.78
2023-05-05T03:00:16.608Z,68.78
2023-05-05T03:03:06.816Z,68.51
2023-05-05T03:05:55.781Z,68.50
2023-05-05T03:08:31.516Z,68.70
2023-05-05T03:11:24.199Z,68.39
2023-05-05T03:13:56.318Z,68.95
2023-05-05T03:16:25.286Z,68.67
2023-05-05T03:18:52.484Z,68.98
2023-05-05T03:21:19.061Z,68.61
2023-05-05T03:23:45.698Z,68.04
2023-05-05T03:26:12.071Z,68.63
2023-05-05T03:28:38.486Z,67.83
2023-05-05T03:31:05.048Z,67.99
2023-05-05T03:33:31.732Z,68.22
2023-05-05T03:35:58.216Z,68.38
2023-05-05T03:38:24.612Z,68.30
2023-05-05T03:40:51.190Z,68.71
2023-05-05T03:43:17.725Z,68.29
2023-05-05T03:45:44.217Z,68.36
2023-05-05T03:48:10.732Z,68.84
2023-05-05T03:50:37.692Z,68.38
2023-05-05T03:53:04.221Z,68.83
2023-05-05T03:55:30.625Z,68.11
2023-05-05T03:57:57.329Z,68.30
2023-05-05T04:00:23.737Z,68.62
2023-05-05T04:02:50.391Z,68.79
2023-05-05T04:05:17.326Z,68.54
2023-05-05T04:07:43.765Z,68.80
2023-05-05T04:10:10.553Z,68.96
2023-05-05T04:12:37.142Z,68.76
2023-05-05T04:15:06.135Z,68.69
2023-05-05T04:17:32.617Z,69.09
2023-05-05T04:19:59.093Z,68.86
2023-05-05T04:22:25.719Z,68.50
2023-05-05T04:24:52.313Z,68.44
2023-05-05T04:27:18.922Z,68.66
2023-05-05T04:29:45.327Z,68.57
2023-05-05T04:32:12.019Z,68.36
2023-05-05T04:34:38.572Z,68.62
2023-05-05T04:37:05.139Z,68.86
2023-05-05T04:39:31.545Z,68.65
2023-05-05T04:41:57.917Z,69.07
2023-05-05T04:44:24.323Z,69.23
2023-05-05T04:46:50.848Z,69.42
2023-05-05T04:49:17.317Z,69.19
2023-05-05T04:51:43.860Z,68.71
2023-05-05T04:54:10.365Z,68.59
2023-05-05T04:56:37.080Z,68.70
2023-05-05T04:59:03.699Z,68.40
2023-05-05T05:01:30.257Z,68.51
2023-05-05T05:03:56.751Z,68.27
2023-05-05T05:06:23.516Z,68.24
2023-05-05T05:08:49.950Z,68.43
2023-05-05T05:11:16.337Z,68.46
2023-05-05T05:13:42.936Z,68.18
2023-05-05T05:16:09.390Z,68.08
2023-05-05T05:18:36.128Z,67.55
2023-05-05T05:21:03.369Z,67.42
2023-05-05T05:23:29.930Z,67.51
2023-05-05T05:25:57.100Z,67.21
2023-05-05T05:28:23.747Z,68.45
2023-05-05T05:30:50.599Z,68.91
2023-05-05T05:33:17.131Z,68.66
2023-05-05T05:35:43.567Z,67.98
2023-05-05T05:38:09.927Z,68.19
2023-05-05T05:40:36.442Z,68.23
2023-05-05T05:43:03.285Z,68.64
2023-05-05T05:45:29.727Z,68.76
2023-05-05T05:47:56.289Z,69.14
2023-05-05T05:50:22.902Z,68.26
2023-05-05T05:52:49.314Z,68.60
2023-05-05T05:55:15.821Z,67.64
2023-05-05T05:57:42.329Z,66.70
2023-05-05T06:00:09.631Z,66.86
2023-05-05T06:02:36.408Z,66.39
2023-05-05T06:05:02.921Z,65.77
2023-05-05T06:07:29.309Z,66.18
2023-05-05T06:09:56.859Z,65.78
2023-05-05T06:12:23.321Z,65.06
2023-05-05T06:14:49.773Z,65.43
2023-05-05T06:17:16.359Z,65.46
2023-05-05T06:19:43.312Z,64.54
2023-05-05T06:22:09.744Z,63.91
2023-05-05T06:24:36.239Z,64.79
2023-05-05T06:27:02.798Z,63.54
2023-05-05T06:29:29.285Z,63.71
2023-05-05T06:31:55.962Z,62.05
2023-05-05T06:34:22.459Z,61.60
2023-05-05T06:36:48.917Z,60.92
2023-05-05T06:39:16.190Z,61.07
2023-05-05T06:41:42.785Z,59.77
2023-05-05T06:44:10.613Z,58.36
2023-05-05T06:46:37.184Z,57.67
2023-05-05T06:49:03.754Z,57.01
2023-05-05T06:51:31.287Z,55.99
2023-05-05T06:53:57.737Z,53.67
2023-05-05T06:56:24.189Z,53.37
2023-05-05T06:58:50.672Z,51.12
2023-05-05T07:01:17.219Z,51.42
2023-05-05T07:03:44.376Z,50.67
2023-05-05T07:06:11.281Z,49.61
2023-05-05T07:08:37.716Z,50.56
2023-05-05T07:11:04.263Z,46.04
2023-05-05T07:13:33.520Z,46.12
2023-05-05T07:16:00.248Z,47.81
2023-05-05T07:18:26.702Z,46.88
2023-05-05T07:20:53.172Z,44.95
2023-05-05T07:23:19.712Z,44.64
2023-05-05T07:25:46.191Z,43.55
2023-05-05T07:28:12.655Z,43.12
2023-05-05T07:30:39.087Z,42.07
2023-05-05T07:33:05.563Z,42.72
2023-05-05T07:35:32.060Z,42.54
2023-05-05T07:37:58.548Z,42.15
2023-05-05T07:40:25.798Z,41.79
2023-05-05T07:42:52.405Z,43.53
2023-05-05T07:45:19.212Z,42.98
2023-05-05T07:47:45.884Z,42.58
2023-05-05T07:50:12.465Z,42.92
2023-05-05T07:52:48.331Z,41.84
2023-05-05T07:55:20.473Z,42.33
2023-05-05T07:57:47.504Z,41.86
2023-05-05T08:00:14.428Z,43.13
2023-05-05T08:02:41.421Z,43.20
2023-05-05T08:05:08.587Z,42.39
2023-05-05T08:07:36.516Z,43.03
2023-05-05T08:10:03.209Z,42.34
2023-05-05T08:12:29.597Z,42.88
2023-05-05T08:14:56.002Z,42.17
2023-05-05T08:17:22.807Z,41.79
2023-05-05T08:19:52.020Z,42.80
2023-05-05T08:22:18.632Z,44.45
2023-05-05T08:24:44.998Z,42.84
2023-05-05T08:27:11.423Z,42.43
2023-05-05T08:29:37.833Z,40.61
2023-05-05T08:32:04.359Z,42.20
2023-05-05T08:34:30.870Z,41.90
2023-05-05T08:36:57.466Z,42.04
2023-05-05T08:39:23.964Z,39.14
2023-05-05T08:41:50.462Z,40.28
2023-05-05T08:44:16.993Z,40.34
2023-05-05T08:46:44.102Z,38.58
2023-05-05T08:49:16.097Z,38.93
2023-05-05T08:51:45.576Z,38.62
2023-05-05T08:54:19.251Z,38.94
2023-05-05T08:56:47.676Z,38.03
2023-05-05T08:59:15.608Z,37.01
2023-05-05T09:01:42.868Z,38.12
2023-05-05T09:04:09.620Z,39.24
2023-05-05T09:06:37.100Z,37.79
2023-05-05T09:09:03.814Z,37.09
2023-05-05T09:11:32.523Z,36.70
2023-05-05T09:13:58.926Z,36.87
2023-05-05T09:16:26.685Z,34.01
2023-05-05T09:19:02.225Z,34.61
2023-05-05T09:21:29.274Z,33.63
2023-05-05T09:24:12.623Z,34.95
2023-05-05T09:26:42.534Z,35.77
2023-05-05T09:29:09.302Z,36.11
2023-05-05T09:31:36.996Z,38.01
2023-05-05T09:34:14.486Z,38.51
2023-05-05T09:36:47.955Z,38.61
2023-05-05T09:39:19.455Z,38.94
2023-05-05T09:41:46.916Z,36.89
2023-05-05T09:44:16.791Z,36.67
2023-05-05T09:46:51.484Z,36.28
2023-05-05T09:49:23.071Z,35.92
2023-05-05T09:51:49.572Z,34.60
2023-05-05T09:54:23.806Z,35.30
2023-05-05T09:56:51.191Z,37.42
2023-05-05T09:59:18.484Z,36.94
2023-05-05T10:01:45.030Z,37.02
2023-05-05T10:04:28.696Z,36.53
2023-05-05T10:06:56.998Z,34.28
2023-05-05T10:09:24.552Z,34.37
2023-05-05T10:11:51.948Z,32.08
2023-05-05T10:14:19.776Z,34.05
2023-05-05T10:16:51.180Z,34.34
2023-05-05T10:19:22.984Z,35.89
2023-05-05T10:21:51.805Z,35.67
2023-05-05T10:24:50.802Z,35.28
2023-05-05T10:27:19.055Z,35.39
2023-05-05T10:30:02.293Z,36.42
2023-05-05T10:32:54.342Z,37.65
2023-05-05T10:35:24.552Z,35.72
2023-05-05T10:37:52.175Z,33.80
2023-05-05T10:40:22.355Z,32.30
2023-05-05T10:42:50.785Z,34.52
2023-05-05T10:45:17.130Z,32.56
2023-05-05T10:47:46.518Z,31.42
2023-05-05T10:50:39.019Z,31.03
2023-05-05T10:53:31.684Z,30.23
2023-05-05T10:56:10.715Z,30.06
2023-05-05T10:58:55.445Z,30.31
2023-05-05T11:01:33.484Z,29.23
2023-05-05T11:04:24.716Z,28.98
2023-05-05T11:07:24.394Z,29.06
2023-05-05T11:10:05.265Z,27.70
2023-05-05T11:12:35.498Z,27.67
2023-05-05T11:15:27.828Z,28.27
2023-05-05T11:17:55.634Z,29.13
2023-05-05T11:20:37.572Z,28.42
2023-05-05T11:23:04.287Z,28.87
2023-05-05T11:25:37.561Z,27.54
2023-05-05T11:28:16.390Z,28.75
2023-05-05T11:30:54.600Z,27.16
2023-05-05T11:33:30.532Z,29.99
2023-05-05T11:36:06.124Z,30.23
2023-05-05T11:38:35.996Z,28.97
2023-05-05T11:41:10.712Z,29.51
2023-05-05T11:43:37.238Z,30.64
2023-05-05T11:46:14.293Z,31.46
2023-05-05T11:48:48.138Z,32.83
2023-05-05T11:51:16.315Z,31.23
2023-05-05T11:53:43.883Z,31.66
2023-05-05T11:56:11.856Z,32.85
2023-05-05T11:58:38.592Z,34.09
2023-05-05T12:01:06.909Z,33.14
2023-05-05T12:03:37.801Z,33.81
2023-05-05T12:06:05.515Z,34.55
2023-05-05T12:08:39.157Z,31.93
2023-05-05T12:11:10.624Z,33.25
2023-05-05T12:13:37.346Z,32.12
2023-05-05T12:16:22.360Z,32.90
2023-05-05T12:19:03.754Z,32.94
2023-05-05T12:21:30.533Z,34.05
2023-05-05T12:23:57.176Z,34.00
2023-05-05T12:26:31.870Z,33.43
2023-05-05T12:29:00.028Z,35.08
2023-05-05T12:31:36.304Z,34.13
2023-05-05T12:34:04.268Z,35.88
2023-05-05T12:36:33.542Z,33.33
2023-05-05T12:39:00.422Z,31.74
2023-05-05T12:41:27.096Z,31.88
2023-05-05T12:44:00.943Z,30.73
2023-05-05T12:46:29.691Z,32.08
2023-05-05T12:49:07.258Z,33.79
2023-05-05T12:51:37.921Z,32.07
2023-05-05T12:54:12.235Z,33.39
2023-05-05T12:56:42.902Z,34.82
2023-05-05T12:59:29.991Z,33.99
2023-05-05T13:01:58.411Z,35.12
2023-05-05T13:04:28.058Z,35.25
2023-05-05T13:07:13.765Z,36.85
2023-05-05T13:09:40.371Z,35.35
2023-05-05T13:12:08.567Z,35.00
2023-05-05T13:14:36.285Z,37.44
2023-05-05T13:17:02.795Z,38.07
2023-05-05T13:19:29.402Z,38.47
2023-05-05T13:21:57.297Z,36.37
2023-05-05T13:24:38.175Z,36.16
2023-05-05T13:27:09.277Z,36.46
2023-05-05T13:29:35.878Z,34.99
2023-05-05T13:32:02.434Z,36.05
2023-05-05T13:34:29.073Z,37.76
2023-05-05T13:36:55.770Z,37.36
2023-05-05T13:39:22.261Z,36.25
2023-05-05T13:41:48.762Z,35.84
2023-05-05T13:44:15.936Z,36.80
2023-05-05T13:46:42.930Z,36.96
2023-05-05T13:49:09.506Z,36.84
2023-05-05T13:51:36.892Z,37.28
2023-05-05T13:54:03.986Z,37.38
2023-05-05T13:56:30.712Z,38.86
2023-05-05T13:58:57.436Z,37.62
2023-05-05T14:01:24.008Z,37.54
2023-05-05T14:03:50.664Z,37.62
2023-05-05T14:06:17.163Z,37.57
2023-05-05T14:08:43.734Z,38.84
2023-05-05T14:11:10.157Z,38.01
2023-05-05T14:13:36.667Z,37.56
2023-05-05T14:16:03.192Z,37.23
2023-05-05T14:18:29.676Z,39.08
2023-05-05T14:23:22.559Z,38.88
2023-05-05T14:25:49.073Z,37.80
2023-05-05T14:28:15.493Z,37.42
2023-05-05T14:30:42.064Z,38.50
2023-05-05T14:33:08.532Z,38.91
2023-05-05T14:35:35.095Z,39.17
2023-05-05T14:38:01.572Z,38.84
2023-05-05T14:40:29.501Z,39.68
2023-05-05T14:42:56.154Z,37.82
2023-05-05T14:45:22.633Z,38.62
2023-05-05T14:47:49.160Z,39.49
2023-05-05T14:50:15.675Z,40.08
2023-05-05T14:52:44.351Z,40.66
2023-05-05T14:55:11.265Z,39.60
2023-05-05T14:57:38.631Z,40.75
2023-05-05T15:00:07.784Z,39.98
2023-05-05T15:02:34.314Z,39.46
2023-05-05T15:05:00.809Z,40.89
2023-05-05T15:07:30.987Z,39.89
2023-05-05T15:09:57.619Z,39.21
2023-05-05T15:12:25.866Z,38.45
2023-05-05T15:14:52.409Z,39.96
2023-05-05T15:17:18.841Z,39.93
2023-05-05T15:19:45.347Z,40.04
2023-05-05T15:22:11.999Z,39.89
2023-05-05T15:24:38.429Z,39.13
2023-05-05T15:27:04.843Z,39.08
2023-05-05T15:29:31.260Z,39.31
2023-05-05T15:31:57.892Z,39.36
2023-05-05T15:34:24.455Z,39.98
2023-05-05T15:36:51.525Z,39.34
2023-05-05T15:39:17.998Z,40.04
2023-05-05T15:41:44.422Z,39.78
2023-05-05T15:44:12.533Z,41.30
2023-05-05T15:46:39.726Z,40.06
2023-05-05T15:49:06.325Z,39.29
2023-05-05T15:51:32.733Z,40.52
2023-05-05T15:53:59.588Z,39.60
2023-05-05T15:56:27.491Z,39.46
2023-05-05T15:58:54.173Z,39.59
2023-05-05T16:01:20.952Z,39.45
2023-05-05T16:03:47.482Z,38.77
2023-05-05T16:06:14.004Z,39.65
2023-05-05T16:08:40.468Z,39.77
2023-05-05T16:11:07.018Z,39.76
2023-05-05T16:13:33.480Z,40.05
2023-05-05T16:15:59.959Z,39.79
2023-05-05T16:18:26.643Z,40.58
2023-05-05T16:20:53.058Z,40.87
2023-05-05T16:23:19.435Z,40.65
2023-05-05T16:25:45.916Z,41.04
2023-05-05T16:28:12.307Z,40.16
2023-05-05T16:30:39.901Z,39.56
2023-05-05T16:33:06.983Z,39.52
2023-05-05T16:35:33.606Z,40.02
2023-05-05T16:38:00.151Z,39.90
2023-05-05T16:40:26.677Z,39.86
2023-05-05T16:42:53.148Z,40.23
2023-05-05T16:45:19.541Z,40.32
2023-05-05T16:47:45.961Z,40.55
2023-05-05T16:50:12.498Z,40.57
2023-05-05T16:52:38.922Z,40.33
2023-05-05T16:55:05.565Z,40.67
2023-05-05T16:57:31.981Z,40.84
2023-05-05T16:59:58.814Z,41.28
2023-05-05T17:02:25.318Z,41.55
2023-05-05T17:04:51.749Z,41.26
2023-05-05T17:07:18.229Z,41.33
2023-05-05T17:09:44.647Z,41.73
2023-05-05T17:12:11.204Z,42.46
2023-05-05T17:14:37.618Z,41.85
2023-05-05T17:17:04.031Z,41.91
2023-05-05T17:19:30.581Z,42.04
2023-05-05T17:21:57.195Z,42.13
2023-05-05T17:24:24.104Z,42.18
2023-05-05T17:26:50.734Z,42.09
2023-05-05T17:29:21.585Z,42.63
2023-05-05T17:31:48.100Z,42.46
2023-05-05T17:34:14.539Z,42.14
2023-05-05T17:36:41.183Z,43.39
2023-05-05T17:39:07.688Z,43.31
2023-05-05T17:41:34.214Z,43.32
2023-05-05T17:44:00.814Z,43.01
2023-05-05T17:46:27.794Z,43.57
2023-05-05T17:48:54.581Z,43.82
2023-05-05T17:51:21.013Z,43.45
2023-05-05T17:53:47.400Z,43.66
2023-05-05T17:56:13.798Z,43.93
2023-05-05T17:58:40.192Z,44.02
2023-05-05T18:01:07.033Z,44.39
2023-05-05T18:03:33.876Z,44.89
2023-05-05T18:06:01.214Z,44.69
2023-05-05T18:08:27.602Z,44.94
2023-05-05T18:10:54.353Z,45.18
2023-05-05T18:13:21.454Z,45.22
2023-05-05T18:15:47.944Z,44.75
2023-05-05T18:18:14.661Z,44.57
2023-05-05T18:20:41.143Z,44.81
2023-05-05T18:23:07.789Z,45.38
2023-05-05T18:25:34.193Z,46.44
2023-05-05T18:28:00.667Z,46.21
2023-05-05T18:30:27.085Z,45.24
2023-05-05T18:32:53.554Z,46.87
2023-05-05T18:35:20.083Z,46.67
2023-05-05T18:37:46.537Z,46.96
2023-05-05T18:40:13.354Z,47.38
2023-05-05T18:42:39.763Z,47.12
2023-05-05T18:45:07.741Z,47.68
2023-05-05T18:47:36.761Z,47.84
2023-05-05T18:50:03.515Z,47.78
2023-05-05T18:52:30.049Z,47.93
2023-05-05T18:54:56.426Z,47.67
2023-05-05T18:57:22.912Z,47.65
2023-05-05T18:59:49.347Z,47.55
2023-05-05T19:02:17.126Z,48.01
2023-05-05T19:04:43.882Z,48.04
2023-05-05T19:07:14.518Z,48.46
2023-05-05T19:09:47.520Z,49.68
2023-05-05T19:12:13.956Z,50.42
2023-05-05T19:14:40.533Z,51.97
2023-05-05T19:17:06.990Z,53.04
2023-05-05T19:19:33.494Z,54.49
2023-05-05T19:22:02.177Z,53.78
2023-05-05T19:24:30.179Z,53.17
2023-05-05T19:26:56.600Z,52.46
2023-05-05T19:29:23.105Z,51.38
2023-05-05T19:31:49.597Z,51.31
2023-05-05T19:34:16.051Z,51.95
2023-05-05T19:36:42.545Z,52.98
2023-05-05T19:39:08.996Z,54.86
2023-05-05T19:41:35.559Z,55.04
2023-05-05T19:44:02.026Z,55.25
2023-05-05T19:46:28.468Z,56.23
2023-05-05T19:48:54.934Z,57.69
2023-05-05T19:51:21.474Z,59.23
2023-05-05T19:53:48.067Z,60.66
2023-05-05T19:56:14.464Z,62.26
2023-05-05T19:58:58.878Z,62.71
2023-05-05T20:01:25.771Z,63.71
2023-05-05T20:03:54.802Z,62.71
2023-05-05T20:06:21.788Z,63.26
2023-05-05T20:08:48.309Z,64.42
2023-05-05T20:11:19.607Z,64.53
2023-05-05T20:13:46.050Z,63.96
2023-05-05T20:16:12.734Z,65.20
2023-05-05T20:18:40.172Z,67.80
2023-05-05T20:21:06.925Z,66.90
2023-05-05T20:23:33.648Z,67.89
2023-05-05T20:26:00.674Z,65.95
2023-05-05T20:28:27.291Z,66.16
2023-05-05T20:30:54.799Z,66.26
2023-05-05T20:33:21.337Z,67.55
2023-05-05T20:35:47.802Z,67.70
2023-05-05T20:38:14.234Z,68.61
2023-05-05T20:40:41.448Z,68.55
2023-05-05T20:43:07.956Z,68.80
2023-05-05T20:45:34.830Z,69.79
2023-05-05T20:48:01.695Z,69.41
2023-05-05T20:50:28.202Z,69.71
2023-05-05T20:52:55.020Z,70.64
2023-05-05T20:55:21.682Z,69.98
2023-05-05T20:57:48.110Z,70.52
2023-05-05T21:00:14.979Z,71.44
2023-05-05T21:02:42.170Z,71.05
2023-05-05T21:05:08.853Z,71.80
2023-05-05T21:07:35.442Z,71.25
2023-05-05T21:10:03.224Z,71.19
2023-05-05T21:12:30.404Z,71.22
2023-05-05T21:14:58.726Z,71.03
2023-05-05T21:17:26.113Z,71.20
2023-05-05T21:19:53.044Z,71.83
2023-05-05T21:22:20.426Z,70.93
2023-05-05T21:24:46.865Z,71.42
2023-05-05T21:27:13.739Z,71.27
2023-05-05T21:29:40.831Z,70.98
2023-05-05T21:32:08.733Z,71.51
2023-05-05T21:34:35.880Z,71.21
2023-05-05T21:37:02.538Z,71.17
2023-05-05T21:39:30.629Z,71.11
2023-05-05T21:41:57.109Z,71.48
2023-05-05T21:44:25.433Z,71.18
2023-05-05T21:46:55.660Z,71.18
2023-05-05T21:49:22.284Z,71.46
2023-05-05T21:51:48.850Z,70.71
2023-05-05T21:54:15.769Z,70.65
2023-05-05T21:56:42.278Z,70.38
2023-05-05T21:59:08.697Z,70.74
2023-05-05T22:01:35.162Z,71.08
2023-05-05T22:04:01.700Z,71.31
2023-05-05T22:06:28.200Z,71.63
2023-05-05T22:08:54.731Z,71.22
2023-05-05T22:11:21.478Z,71.99
2023-05-05T22:13:47.947Z,71.96
2023-05-05T22:16:18.837Z,72.50
2023-05-05T22:18:45.935Z,72.25
2023-05-05T22:21:12.357Z,71.95
2023-05-05T22:23:41.942Z,71.49
2023-05-05T22:26:08.981Z,71.87
2023-05-05T22:28:35.937Z,72.40
2023-05-05T22:31:02.586Z,72.66
2023-05-05T22:33:29.080Z,72.19
2023-05-05T22:35:55.771Z,72.22
2023-05-05T22:38:22.274Z,72.29
2023-05-05T22:40:49.595Z,72.37
2023-05-05T22:43:16.072Z,72.28
2023-05-05T22:45:43.351Z,72.64
2023-05-05T22:48:10.105Z,72.78
2023-05-05T22:50:36.836Z,72.67
2023-05-05T22:53:03.563Z,72.88
2023-05-05T22:55:30.084Z,73.25
2023-05-05T22:57:56.508Z,73.14
2023-05-05T23:00:24.348Z,73.08
2023-05-05T23:02:50.978Z,73.21
2023-05-05T23:05:17.518Z,73.17
2023-05-05T23:07:43.976Z,73.96
2023-05-05T23:10:10.742Z,75.58
2023-05-05T23:12:37.188Z,75.61
2023-05-05T23:15:04.592Z,75.70
2023-05-05T23:17:34.042Z,75.52
2023-05-05T23:20:00.599Z,75.28
2023-05-05T23:22:26.990Z,75.28
2023-05-05T23:24:53.357Z,74.76
2023-05-05T23:27:19.797Z,74.67
2023-05-05T23:29:46.220Z,74.90
2023-05-05T23:32:12.661Z,75.51
2023-05-05T23:34:39.060Z,75.06
2023-05-05T23:37:06.368Z,74.93
2023-05-05T23:39:34.404Z,75.50
2023-05-05T23:42:00.821Z,75.88
2023-05-05T23:44:27.673Z,76.14
2023-05-05T23:46:54.400Z,76.28
2023-05-05T23:49:20.886Z,76.03
2023-05-05T23:51:47.277Z,76.24
2023-05-05T23:54:13.657Z,75.56
2023-05-05T23:56:41.031Z,75.95
2023-05-05T23:59:07.465Z,75.53
